Time;durP1;ratioP1;P1;durP2;ratioP2;P2;SDS_P1;SDS_P2;PMS_P1;PMS_P2;Temp;Humidity;BMP_temperature;BMP_pressure;BME280_temperature;BME280_humidity;BME280_pressure;Samples;Min_cycle;Max_cycle;Signal;HPM_P1;HPM_P2
2023/06/29 00:00:29;;;;;;;6.25;5.65;;;16.90;99.90;;;;;;5022517;28;20906;-86
2023/06/29 00:02:57;;;;;;;5.25;4.85;;;16.90;99.90;;;;;;5040278;28;20048;-86
2023/06/29 00:05:25;;;;;;;5.95;5.45;;;16.90;99.90;;;;;;5043033;28;20044;-86
2023/06/29 00:07:52;;;;;;;5.85;5.30;;;16.90;99.90;;;;;;5059704;22;20476;-64
2023/06/29 00:10:18;;;;;;;5.43;4.88;;;16.90;99.90;;;;;;5045227;28;20072;-63
2023/06/29 00:12:45;;;;;;;5.90;5.40;;;16.90;99.90;;;;;;5052348;28;20098;-63
2023/06/29 00:15:12;;;;;;;5.93;5.43;;;16.90;99.90;;;;;;5052394;28;20040;-66
2023/06/29 00:17:39;;;;;;;6.32;5.72;;;16.90;99.90;;;;;;5052731;28;20459;-63
2023/06/29 00:20:12;;;;;;;6.07;5.47;;;16.90;99.90;;;;;;5055434;28;20041;-63
2023/06/29 00:22:40;;;;;;;6.72;6.13;;;16.90;99.90;;;;;;5056754;28;20052;-63
2023/06/29 00:25:09;;;;;;;6.38;5.88;;;16.90;99.90;;;;;;5057612;28;20037;-65
2023/06/29 00:27:36;;;;;;;8.00;5.40;;;16.90;99.90;;;;;;5049670;28;20284;-63
2023/06/29 00:30:03;;;;;;;7.32;6.72;;;16.90;99.90;;;;;;5055341;28;20335;-63
2023/06/29 00:32:30;;;;;;;7.72;7.00;;;16.90;99.90;;;;;;5057295;28;20045;-66
2023/06/29 00:34:57;;;;;;;6.95;6.35;;;16.90;99.90;;;;;;5060384;28;20044;-63
2023/06/29 00:37:24;;;;;;;6.45;5.95;;;16.90;99.90;;;;;;5078075;28;20465;-63
2023/06/29 00:39:52;;;;;;;6.63;6.03;;;16.90;99.90;;;;;;5057712;28;20047;-64
2023/06/29 00:42:19;;;;;;;6.35;5.85;;;16.90;99.90;;;;;;5078843;28;20043;-63
2023/06/29 00:44:46;;;;;;;6.45;5.90;;;16.90;99.90;;;;;;5078055;28;20044;-64
2023/06/29 00:47:13;;;;;;;7.13;6.53;;;16.80;99.90;;;;;;5079187;28;20043;-64
2023/06/29 00:49:41;;;;;;;12.07;7.78;;;16.80;99.90;;;;;;5077769;28;20044;-63
2023/06/29 00:52:08;;;;;;;6.13;5.63;;;16.80;99.90;;;;;;5081071;28;20036;-64
2023/06/29 00:54:35;;;;;;;7.50;6.90;;;16.80;99.90;;;;;;5084591;28;20527;-66
2023/06/29 00:57:02;;;;;;;6.65;6.05;;;16.80;99.90;;;;;;5055983;28;20044;-63
2023/06/29 00:59:29;;;;;;;6.53;5.90;;;16.80;99.90;;;;;;5077362;28;20074;-64
2023/06/29 01:01:56;;;;;;;7.53;6.93;;;16.80;99.90;;;;;;5080072;28;20436;-63
2023/06/29 01:04:25;;;;;;;6.35;5.85;;;16.80;99.90;;;;;;5073638;28;20044;-64
2023/06/29 01:07:06;;;;;;;6.85;6.25;;;16.70;99.90;;;;;;5079009;28;20060;-64
2023/06/29 01:09:34;;;;;;;6.43;5.88;;;16.70;99.90;;;;;;5073871;28;20058;-63
2023/06/29 01:12:03;;;;;;;6.60;6.00;;;16.70;99.90;;;;;;5061503;28;20094;-63
2023/06/29 01:14:32;;;;;;;8.38;7.28;;;16.70;99.90;;;;;;5080058;28;20044;-65
2023/06/29 01:17:01;;;;;;;8.38;7.65;;;16.70;99.90;;;;;;5056444;28;20140;-63
2023/06/29 01:19:31;;;;;;;7.35;6.75;;;16.70;99.90;;;;;;5071913;28;20093;-64
2023/06/29 01:22:10;;;;;;;7.82;7.13;;;16.70;99.90;;;;;;5076403;28;20581;-63
2023/06/29 01:24:40;;;;;;;7.93;7.32;;;16.70;99.90;;;;;;5079399;28;20056;-65
2023/06/29 01:27:08;;;;;;;7.20;6.60;;;16.70;99.90;;;;;;5072241;28;20065;-63
2023/06/29 01:29:35;;;;;;;6.72;6.22;;;16.70;99.90;;;;;;5077373;28;20044;-63
2023/06/29 01:32:03;;;;;;;7.60;6.90;;;16.70;99.90;;;;;;5075146;28;20047;-63
2023/06/29 01:34:31;;;;;;;7.20;6.60;;;16.80;99.90;;;;;;5058716;28;20306;-66
2023/06/29 01:37:21;;;;;;;10.85;6.50;;;16.80;99.90;;;;;;5073027;28;20049;-64
2023/06/29 01:40:08;;;;;;;6.63;6.07;;;16.80;99.90;;;;;;5077361;28;20101;-63
2023/06/29 01:42:37;;;;;;;8.48;7.65;;;16.90;99.90;;;;;;5076399;28;20048;-63
2023/06/29 01:45:08;;;;;;;7.55;6.85;;;16.90;99.90;;;;;;5075489;28;20044;-65
2023/06/29 01:47:36;;;;;;;9.70;8.80;;;17.00;99.90;;;;;;5076033;28;20055;-66
2023/06/29 01:50:03;;;;;;;8.75;7.97;;;17.20;99.90;;;;;;5076175;28;20044;-63
2023/06/29 01:52:31;;;;;;;9.20;7.80;;;17.30;99.90;;;;;;5072339;28;20047;-64
2023/06/29 01:54:57;;;;;;;9.73;8.75;;;17.40;99.90;;;;;;5059803;28;20048;-63
2023/06/29 01:57:27;;;;;;;8.25;7.55;;;17.40;99.90;;;;;;5079926;28;20044;-63
2023/06/29 01:59:54;;;;;;;7.68;7.07;;;17.40;99.90;;;;;;5054947;28;20044;-66
2023/06/29 02:02:21;;;;;;;9.18;8.13;;;17.50;99.90;;;;;;5077771;28;20067;-63
2023/06/29 02:04:48;;;;;;;8.55;7.70;;;17.50;99.90;;;;;;5076728;28;20345;-63
2023/06/29 02:07:14;;;;;;;7.95;7.28;;;17.60;99.90;;;;;;5074097;28;20044;-65
2023/06/29 02:09:43;;;;;;;8.93;8.13;;;17.70;99.90;;;;;;5076634;28;20070;-65
2023/06/29 02:12:10;;;;;;;9.88;8.98;;;17.70;99.90;;;;;;5077007;28;20040;-64
2023/06/29 02:14:37;;;;;;;9.60;8.80;;;17.70;99.90;;;;;;5076916;28;20040;-66
2023/06/29 02:17:04;;;;;;;9.75;8.98;;;17.80;99.90;;;;;;5061243;28;20079;-63
2023/06/29 02:19:31;;;;;;;8.75;8.05;;;17.80;99.90;;;;;;5078381;28;20658;-65
2023/06/29 02:21:58;;;;;;;8.50;7.82;;;17.80;99.90;;;;;;5070153;28;20094;-65
2023/06/29 02:24:25;;;;;;;9.00;8.20;;;17.80;99.90;;;;;;5062647;28;20040;-64
2023/06/29 02:26:52;;;;;;;7.82;7.00;;;17.80;99.90;;;;;;5075708;28;20048;-64
2023/06/29 02:29:19;;;;;;;7.05;6.47;;;17.80;99.90;;;;;;5073484;28;20040;-64
2023/06/29 02:31:46;;;;;;;7.93;7.28;;;17.80;99.90;;;;;;5078046;28;20109;-64
2023/06/29 02:34:13;;;;;;;8.75;7.95;;;17.90;99.90;;;;;;5056820;28;20060;-64
2023/06/29 02:36:40;;;;;;;8.82;8.13;;;17.90;99.90;;;;;;5075766;28;20481;-63
2023/06/29 02:39:07;;;;;;;9.02;8.30;;;17.90;99.90;;;;;;5070303;28;20098;-64
2023/06/29 02:41:35;;;;;;;9.73;8.75;;;18.00;99.90;;;;;;5069041;28;20457;-66
2023/06/29 02:44:02;;;;;;;10.15;8.77;;;18.10;99.90;;;;;;5073987;28;20044;-63
2023/06/29 02:46:30;;;;;;;8.43;7.78;;;18.10;99.90;;;;;;5058850;28;20117;-63
2023/06/29 02:48:57;;;;;;;8.57;7.50;;;18.10;99.90;;;;;;5071001;28;20079;-63
2023/06/29 02:51:24;;;;;;;9.13;8.23;;;18.10;99.90;;;;;;5077414;28;20430;-64
2023/06/29 02:53:56;;;;;;;8.23;7.53;;;18.10;99.90;;;;;;5056891;28;20047;-64
2023/06/29 02:56:22;;;;;;;7.32;6.63;;;18.20;99.90;;;;;;5072522;28;20041;-64
2023/06/29 02:58:49;;;;;;;7.40;6.80;;;18.10;99.90;;;;;;5074323;28;20048;-64
2023/06/29 03:01:21;;;;;;;8.02;7.35;;;18.20;99.90;;;;;;5058583;28;20140;-63
2023/06/29 03:03:48;;;;;;;8.20;7.40;;;18.20;99.90;;;;;;5052468;28;20154;-66
2023/06/29 03:06:14;;;;;;;7.85;7.15;;;18.20;99.90;;;;;;5047583;28;20578;-64
2023/06/29 03:08:41;;;;;;;6.90;6.35;;;18.20;99.90;;;;;;5078310;28;20052;-63
2023/06/29 03:11:08;;;;;;;7.47;6.75;;;18.30;99.90;;;;;;5069744;28;20040;-65
2023/06/29 03:13:35;;;;;;;8.07;7.47;;;18.20;99.90;;;;;;5056166;28;20070;-65
2023/06/29 03:16:02;;;;;;;8.27;7.45;;;18.20;99.90;;;;;;5070718;28;20040;-63
2023/06/29 03:18:29;;;;;;;7.88;7.07;;;18.20;99.90;;;;;;5073967;28;20124;-63
2023/06/29 03:20:57;;;;;;;6.80;6.30;;;18.20;99.90;;;;;;5073582;28;20163;-65
2023/06/29 03:23:23;;;;;;;6.53;6.00;;;18.20;99.90;;;;;;5074638;28;20044;-63
2023/06/29 03:25:50;;;;;;;6.15;5.65;;;18.20;99.90;;;;;;5066457;28;20067;-63
2023/06/29 03:28:17;;;;;;;7.03;6.43;;;18.20;99.90;;;;;;5061156;28;20060;-66
2023/06/29 03:30:44;;;;;;;10.10;5.18;;;18.20;99.90;;;;;;5074094;28;20336;-64
2023/06/29 03:33:11;;;;;;;6.45;5.45;;;18.30;99.90;;;;;;5075699;28;20043;-63
2023/06/29 03:35:38;;;;;;;5.07;4.72;;;18.30;99.90;;;;;;5065931;28;20076;-64
2023/06/29 03:38:08;;;;;;;6.65;5.78;;;18.40;99.90;;;;;;5075573;28;20052;-65
2023/06/29 03:40:35;;;;;;;4.95;4.50;;;18.50;99.90;;;;;;5076356;28;20056;-64
2023/06/29 03:43:02;;;;;;;7.78;5.53;;;18.60;99.90;;;;;;5072652;28;20089;-64
2023/06/29 03:45:31;;;;;;;5.85;5.05;;;18.80;99.90;;;;;;5062731;28;21071;-66
2023/06/29 03:47:58;;;;;;;5.88;5.38;;;18.90;99.90;;;;;;5083277;28;20047;-63
2023/06/29 03:50:25;;;;;;;6.05;5.45;;;19.00;99.90;;;;;;5075817;28;20109;-63
2023/06/29 03:52:52;;;;;;;5.03;4.38;;;19.10;99.90;;;;;;5080365;28;20047;-64
2023/06/29 03:55:19;;;;;;;6.63;4.95;;;19.10;99.90;;;;;;5080882;28;20481;-63
2023/06/29 03:57:46;;;;;;;5.63;4.78;;;19.20;99.90;;;;;;5073502;28;20537;-64
2023/06/29 04:00:13;;;;;;;4.85;4.45;;;19.30;99.90;;;;;;5079838;28;20044;-64
2023/06/29 04:02:40;;;;;;;4.95;4.50;;;19.30;99.90;;;;;;5078994;28;20044;-64
2023/06/29 04:05:08;;;;;;;5.07;4.68;;;19.30;99.90;;;;;;5073816;28;20041;-63
2023/06/29 04:07:35;;;;;;;5.57;5.05;;;19.40;99.90;;;;;;5076794;28;20157;-63
2023/06/29 04:10:03;;;;;;;7.25;5.32;;;19.40;99.90;;;;;;5079263;28;20493;-63
2023/06/29 04:12:29;;;;;;;5.68;4.57;;;19.40;99.90;;;;;;5079164;28;20052;-64
2023/06/29 04:14:56;;;;;;;4.80;4.05;;;19.40;99.90;;;;;;5078362;28;20086;-65
2023/06/29 04:17:23;;;;;;;5.10;4.55;;;19.50;99.90;;;;;;5076718;28;20044;-64
2023/06/29 04:19:50;;;;;;;6.32;5.72;;;19.50;99.90;;;;;;5076439;28;20417;-63
2023/06/29 04:22:17;;;;;;;4.85;4.38;;;19.60;99.90;;;;;;5079427;28;20142;-64
2023/06/29 04:24:44;;;;;;;4.57;4.18;;;19.60;99.90;;;;;;5074956;28;20084;-63
2023/06/29 04:27:11;;;;;;;7.15;5.00;;;19.70;99.90;;;;;;5079309;28;20052;-66
2023/06/29 04:29:38;;;;;;;5.05;4.38;;;19.60;99.90;;;;;;5075959;28;20094;-64
2023/06/29 04:32:05;;;;;;;5.65;5.00;;;19.60;99.90;;;;;;5077470;28;20058;-62
2023/06/29 04:34:31;;;;;;;6.85;5.20;;;19.60;99.90;;;;;;5078355;28;20044;-63
2023/06/29 04:37:01;;;;;;;5.53;4.53;;;19.60;99.90;;;;;;5076250;28;20424;-63
2023/06/29 04:39:29;;;;;;;4.93;4.50;;;19.70;99.90;;;;;;5074529;28;20040;-64
2023/06/29 04:42:01;;;;;;;7.97;4.38;;;19.70;99.90;;;;;;5075221;28;20141;-64
2023/06/29 04:44:32;;;;;;;4.80;4.40;;;19.70;99.90;;;;;;5077613;28;20105;-64
2023/06/29 04:47:00;;;;;;;6.97;6.18;;;19.80;99.90;;;;;;5078606;28;20401;-63
2023/06/29 04:49:37;;;;;;;5.72;5.13;;;19.80;99.90;;;;;;5077140;28;20047;-64
2023/06/29 04:52:05;;;;;;;4.60;4.20;;;19.90;99.90;;;;;;5074803;28;20302;-63
2023/06/29 04:54:32;;;;;;;8.63;5.25;;;19.90;99.90;;;;;;5063853;28;20538;-62
2023/06/29 04:56:59;;;;;;;7.43;4.30;;;19.90;99.90;;;;;;5076738;28;20040;-62
2023/06/29 04:59:28;;;;;;;5.35;4.65;;;20.00;99.90;;;;;;5074239;28;20482;-64
2023/06/29 05:01:55;;;;;;;4.93;4.43;;;20.00;99.90;;;;;;5075668;28;20036;-64
2023/06/29 05:04:22;;;;;;;5.05;4.60;;;20.00;99.90;;;;;;5077308;28;20564;-63
2023/06/29 05:06:49;;;;;;;5.38;4.88;;;20.00;99.90;;;;;;5079453;28;20072;-64
2023/06/29 05:09:16;;;;;;;6.80;5.00;;;20.00;99.90;;;;;;5078382;28;20060;-63
2023/06/29 05:11:43;;;;;;;5.85;5.32;;;20.10;99.90;;;;;;5079202;28;20509;-65
2023/06/29 05:14:09;;;;;;;5.75;4.45;;;20.20;99.90;;;;;;5074016;28;20131;-64
2023/06/29 05:16:37;;;;;;;6.25;4.57;;;20.20;99.90;;;;;;5079072;28;20048;-64
2023/06/29 05:19:04;;;;;;;5.15;4.70;;;20.20;99.90;;;;;;5074928;28;20041;-63
2023/06/29 05:21:31;;;;;;;5.90;5.40;;;20.20;99.90;;;;;;5079169;28;20087;-63
2023/06/29 05:23:58;;;;;;;7.88;5.18;;;20.30;99.90;;;;;;5080268;28;20658;-64
2023/06/29 05:26:25;;;;;;;5.38;4.88;;;20.30;99.90;;;;;;5080210;28;20044;-65
2023/06/29 05:28:51;;;;;;;7.93;5.18;;;20.30;99.90;;;;;;5080319;28;20126;-63
2023/06/29 05:31:31;;;;;;;6.57;4.70;;;20.30;99.90;;;;;;5085200;28;20556;-67
2023/06/29 05:33:58;;;;;;;10.48;5.60;;;20.20;99.90;;;;;;5080039;28;20059;-64
2023/06/29 05:36:26;;;;;;;5.65;4.90;;;20.20;99.90;;;;;;5078673;28;20055;-64
2023/06/29 05:38:53;;;;;;;5.07;4.35;;;20.20;99.90;;;;;;5084162;28;20298;-64
2023/06/29 05:41:20;;;;;;;5.75;4.78;;;20.20;99.90;;;;;;5084602;28;20068;-63
2023/06/29 05:43:46;;;;;;;5.20;4.70;;;20.20;99.90;;;;;;5087978;28;20481;-65
2023/06/29 05:46:13;;;;;;;4.68;4.13;;;20.20;99.90;;;;;;5084721;28;20082;-63
2023/06/29 05:48:40;;;;;;;5.13;4.63;;;20.20;99.90;;;;;;5082892;28;20455;-64
2023/06/29 05:51:07;;;;;;;7.40;4.90;;;20.20;99.90;;;;;;5081522;28;20129;-66
2023/06/29 05:53:34;;;;;;;5.35;4.88;;;20.20;99.90;;;;;;5081769;28;20733;-64
2023/06/29 05:56:01;;;;;;;6.13;5.55;;;20.20;99.90;;;;;;5084478;28;20047;-63
2023/06/29 05:58:28;;;;;;;7.45;5.53;;;20.20;99.90;;;;;;5083338;28;20082;-63
2023/06/29 06:00:55;;;;;;;5.57;4.60;;;20.20;99.90;;;;;;5083799;28;20076;-64
2023/06/29 06:03:23;;;;;;;5.95;5.35;;;20.10;99.90;;;;;;5083434;28;20056;-64
2023/06/29 06:05:50;;;;;;;8.10;5.75;;;20.20;99.90;;;;;;5085927;28;20400;-64
2023/06/29 06:08:17;;;;;;;5.03;4.60;;;20.10;99.90;;;;;;5076560;28;20508;-64
2023/06/29 06:10:44;;;;;;;6.75;5.82;;;20.10;99.90;;;;;;5083966;28;20052;-63
2023/06/29 06:13:12;;;;;;;8.15;4.93;;;20.10;99.90;;;;;;5086674;28;20067;-64
2023/06/29 06:15:41;;;;;;;10.23;5.22;;;20.10;99.90;;;;;;5086237;28;20052;-65
2023/06/29 06:18:08;;;;;;;8.23;5.43;;;20.10;99.90;;;;;;5084220;28;20565;-64
2023/06/29 06:20:34;;;;;;;9.57;5.65;;;20.00;99.90;;;;;;5079325;28;20040;-64
2023/06/29 06:23:01;;;;;;;7.70;5.57;;;20.00;99.90;;;;;;5082183;28;20044;-66
2023/06/29 06:25:28;;;;;;;6.07;5.47;;;20.00;99.90;;;;;;5080980;28;20085;-65
2023/06/29 06:27:55;;;;;;;5.45;4.95;;;20.00;99.90;;;;;;5084886;28;20090;-66
2023/06/29 06:30:23;;;;;;;6.95;5.18;;;20.10;99.90;;;;;;5079764;28;20048;-63
2023/06/29 06:32:50;;;;;;;6.20;5.50;;;20.10;99.90;;;;;;5084315;28;20101;-63
2023/06/29 06:35:17;;;;;;;6.60;6.00;;;20.10;99.90;;;;;;5062170;28;20047;-66
2023/06/29 06:37:45;;;;;;;6.38;4.95;;;20.10;99.90;;;;;;5076364;28;20230;-65
2023/06/29 06:40:12;;;;;;;6.20;5.70;;;20.20;99.90;;;;;;5078776;28;20391;-64
2023/06/29 06:42:39;;;;;;;5.05;4.55;;;20.20;99.90;;;;;;5084572;28;20560;-67
2023/06/29 06:45:07;;;;;;;8.05;5.05;;;20.30;99.90;;;;;;5082585;28;20427;-65
2023/06/29 06:47:35;;;;;;;7.53;5.30;;;20.30;99.90;;;;;;5083546;28;20093;-64
2023/06/29 06:50:03;;;;;;;10.20;5.85;;;20.40;99.90;;;;;;5078704;28;20043;-63
2023/06/29 06:52:30;;;;;;;5.57;4.95;;;20.50;99.90;;;;;;5085767;28;20105;-64
2023/06/29 06:54:57;;;;;;;9.10;4.35;;;20.50;99.90;;;;;;5086647;28;20035;-65
2023/06/29 06:57:24;;;;;;;6.50;5.63;;;20.50;99.90;;;;;;5078783;28;20386;-64
2023/06/29 06:59:51;;;;;;;5.68;5.18;;;20.50;99.90;;;;;;5087715;28;20482;-63
2023/06/29 07:02:18;;;;;;;9.40;6.03;;;20.40;99.90;;;;;;5082075;28;20122;-64
2023/06/29 07:04:45;;;;;;;5.13;4.72;;;20.50;99.90;;;;;;5082236;28;20093;-66
2023/06/29 07:07:12;;;;;;;8.05;5.63;;;20.50;99.90;;;;;;5082815;28;20460;-63
2023/06/29 07:09:39;;;;;;;7.90;4.95;;;20.50;99.90;;;;;;5080648;28;20040;-66
2023/06/29 07:12:07;;;;;;;6.68;5.03;;;20.50;99.90;;;;;;5084554;28;20079;-65
2023/06/29 07:14:33;;;;;;;6.13;5.63;;;20.50;99.90;;;;;;5080014;28;20132;-64
2023/06/29 07:17:00;;;;;;;5.47;4.93;;;20.50;99.90;;;;;;5086737;28;20058;-66
2023/06/29 07:19:28;;;;;;;5.57;5.05;;;20.50;99.90;;;;;;5081885;28;20051;-64
2023/06/29 07:21:58;;;;;;;6.43;5.05;;;20.50;99.90;;;;;;5086785;28;20036;-65
2023/06/29 07:24:27;;;;;;;5.80;5.10;;;20.40;99.90;;;;;;5082617;28;20126;-66
2023/06/29 07:26:54;;;;;;;6.32;5.18;;;20.40;99.90;;;;;;5081363;28;20093;-64
2023/06/29 07:29:21;;;;;;;4.97;4.57;;;20.50;99.90;;;;;;5078884;28;20596;-66
2023/06/29 07:31:48;;;;;;;6.88;5.45;;;20.50;99.90;;;;;;5083749;28;20552;-65
2023/06/29 07:34:15;;;;;;;5.47;4.72;;;20.50;99.90;;;;;;5087034;28;20051;-64
2023/06/29 07:36:42;;;;;;;9.32;5.18;;;20.50;99.90;;;;;;5083403;28;20044;-64
2023/06/29 07:39:09;;;;;;;10.98;5.28;;;20.50;99.90;;;;;;5079178;28;20108;-66
2023/06/29 07:41:36;;;;;;;6.47;5.82;;;20.50;99.90;;;;;;5080307;28;20134;-64
2023/06/29 07:44:03;;;;;;;6.10;4.93;;;20.70;99.90;;;;;;5082148;28;20048;-65
2023/06/29 07:46:31;;;;;;;5.22;4.78;;;20.80;99.90;;;;;;5077921;28;20083;-64
2023/06/29 07:48:59;;;;;;;7.90;5.40;;;20.80;99.90;;;;;;5085754;28;20396;-65
2023/06/29 07:51:32;;;;;;;6.13;5.20;;;20.80;99.90;;;;;;5082872;28;20429;-64
2023/06/29 07:54:03;;;;;;;6.10;5.60;;;20.70;99.90;;;;;;5084335;28;20407;-65
2023/06/29 07:56:32;;;;;;;6.40;5.65;;;20.60;99.90;;;;;;5083733;28;20134;-64
2023/06/29 07:59:01;;;;;;;11.48;6.05;;;20.70;99.90;;;;;;5082229;28;20064;-66
2023/06/29 08:01:28;;;;;;;7.00;6.05;;;20.80;99.90;;;;;;5079418;28;20382;-64
2023/06/29 08:03:55;;;;;;;6.57;5.75;;;20.80;99.90;;;;;;5079598;28;20116;-64
2023/06/29 08:06:31;;;;;;;6.82;6.18;;;20.70;99.90;;;;;;5078196;28;20496;-63
2023/06/29 08:09:01;;;;;;;5.88;5.28;;;20.90;99.90;;;;;;5079484;28;20544;-64
2023/06/29 08:11:28;;;;;;;6.18;4.95;;;21.00;99.90;;;;;;5082250;28;20404;-65
2023/06/29 08:13:55;;;;;;;7.03;6.35;;;21.10;99.90;;;;;;5086991;28;20447;-64
2023/06/29 08:16:22;;;;;;;6.88;5.70;;;21.00;99.90;;;;;;5077594;28;20081;-63
2023/06/29 08:18:49;;;;;;;8.30;6.20;;;20.90;99.90;;;;;;5083423;28;20456;-63
2023/06/29 08:21:16;;;;;;;12.15;7.57;;;20.90;99.90;;;;;;5079477;28;20511;-65
2023/06/29 08:23:43;;;;;;;5.25;4.82;;;20.80;99.90;;;;;;5083013;28;20073;-65
2023/06/29 08:26:11;;;;;;;6.93;6.22;;;20.80;99.90;;;;;;5082394;28;20122;-64
2023/06/29 08:28:38;;;;;;;6.10;5.53;;;20.80;99.90;;;;;;5085848;28;20504;-64
2023/06/29 08:31:04;;;;;;;6.45;5.75;;;20.70;99.90;;;;;;5079232;28;20447;-66
2023/06/29 08:33:33;;;;;;;7.65;5.80;;;20.80;99.90;;;;;;5080100;28;20164;-65
2023/06/29 08:36:00;;;;;;;5.80;5.30;;;20.90;99.90;;;;;;5088260;28;20120;-64
2023/06/29 08:38:27;;;;;;;9.60;6.15;;;20.90;99.90;;;;;;5080779;28;20039;-65
2023/06/29 08:40:58;;;;;;;6.18;5.45;;;20.90;99.90;;;;;;5083414;28;20047;-66
2023/06/29 08:43:25;;;;;;;6.40;5.75;;;21.00;99.90;;;;;;5084706;28;20080;-63
2023/06/29 08:45:52;;;;;;;7.32;5.78;;;21.10;99.90;;;;;;5086223;28;20435;-66
2023/06/29 08:48:20;;;;;;;6.05;5.55;;;21.30;99.90;;;;;;5085977;28;20058;-67
2023/06/29 08:51:00;;;;;;;5.50;5.00;;;21.30;99.90;;;;;;5084018;28;20431;-63
2023/06/29 08:53:28;;;;;;;6.18;5.57;;;21.30;99.90;;;;;;5090302;28;20465;-64
2023/06/29 08:55:56;;;;;;;6.47;5.78;;;21.20;99.90;;;;;;5086121;28;20048;-67
2023/06/29 08:58:24;;;;;;;6.40;5.80;;;21.20;99.90;;;;;;5083488;28;20482;-65
2023/06/29 09:00:53;;;;;;;5.95;5.45;;;21.20;99.90;;;;;;5086256;28;20675;-65
2023/06/29 09:03:22;;;;;;;8.70;5.63;;;21.50;99.90;;;;;;5086103;28;20040;-64
2023/06/29 09:05:50;;;;;;;5.65;5.25;;;21.30;99.90;;;;;;5078468;28;20071;-64
2023/06/29 09:08:19;;;;;;;6.53;5.45;;;21.40;99.90;;;;;;5088910;28;20055;-64
2023/06/29 09:10:46;;;;;;;5.90;5.30;;;21.50;99.90;;;;;;5085889;28;20040;-64
2023/06/29 09:13:14;;;;;;;7.05;5.20;;;21.50;99.90;;;;;;5086184;28;20106;-64
2023/06/29 09:15:41;;;;;;;6.97;5.65;;;21.40;99.90;;;;;;5084995;28;20036;-66
2023/06/29 09:18:10;;;;;;;6.22;5.40;;;21.40;99.90;;;;;;5086055;28;20543;-65
2023/06/29 09:20:37;;;;;;;6.03;4.68;;;21.20;99.90;;;;;;5080277;28;20039;-64
2023/06/29 09:23:04;;;;;;;5.75;4.80;;;21.30;99.90;;;;;;5086234;28;20044;-67
2023/06/29 09:25:35;;;;;;;6.03;4.93;;;21.40;99.90;;;;;;5081615;28;20044;-67
2023/06/29 09:28:07;;;;;;;5.50;4.95;;;21.40;99.90;;;;;;5066268;28;20397;-63
2023/06/29 09:30:38;;;;;;;5.07;4.68;;;21.30;99.90;;;;;;5084055;28;20039;-64
2023/06/29 09:33:07;;;;;;;5.60;5.05;;;21.40;99.90;;;;;;5083439;28;20435;-66
2023/06/29 09:35:36;;;;;;;8.02;5.47;;;21.40;99.90;;;;;;5083414;28;20048;-66
2023/06/29 09:38:03;;;;;;;8.82;5.32;;;21.50;99.90;;;;;;5079731;28;20040;-64
2023/06/29 09:40:30;;;;;;;6.07;5.47;;;21.50;99.90;;;;;;5087463;28;20059;-64
2023/06/29 09:43:01;;;;;;;5.80;5.22;;;21.50;99.90;;;;;;5083606;28;20135;-64
2023/06/29 09:45:31;;;;;;;5.05;4.65;;;21.60;99.90;;;;;;5085124;28;20044;-65
2023/06/29 09:47:58;;;;;;;;;;;21.70;99.90;;;;;;5085325;28;20089;-64
2023/06/29 09:50:28;;;;;;;5.63;4.32;;;21.80;99.90;;;;;;5077778;28;20026;-64
2023/06/29 09:52:56;;;;;;;6.05;5.53;;;21.90;99.90;;;;;;5080350;28;20044;-64
2023/06/29 09:55:30;;;;;;;5.63;5.10;;;21.90;99.90;;;;;;5085721;28;20051;-64
2023/06/29 09:57:58;;;;;;;4.70;4.30;;;22.00;99.90;;;;;;5085930;28;20544;-67
2023/06/29 10:00:27;;;;;;;5.57;5.07;;;22.00;99.90;;;;;;5088627;28;20036;-64
2023/06/29 10:02:54;;;;;;;5.35;4.80;;;22.00;99.90;;;;;;5083967;28;20059;-66
2023/06/29 10:05:22;;;;;;;6.47;5.80;;;21.90;99.90;;;;;;5085081;28;20048;-66
2023/06/29 10:07:53;;;;;;;5.00;4.53;;;22.00;99.90;;;;;;5079707;28;20634;-65
2023/06/29 10:10:23;;;;;;;6.00;4.90;;;22.00;99.90;;;;;;5076726;28;20162;-63
2023/06/29 10:12:55;;;;;;;5.53;5.03;;;21.80;99.90;;;;;;5082753;28;20059;-64
2023/06/29 10:15:26;;;;;;;5.68;5.05;;;21.70;99.90;;;;;;5085101;28;20560;-64
2023/06/29 10:18:01;;;;;;;6.53;5.00;;;21.70;99.90;;;;;;5083353;28;20044;-66
2023/06/29 10:20:31;;;;;;;6.20;5.70;;;21.80;99.90;;;;;;5080567;28;20047;-65
2023/06/29 10:23:03;;;;;;;4.85;4.45;;;21.80;99.90;;;;;;5084004;28;20493;-66
2023/06/29 10:25:34;;;;;;;6.55;5.32;;;21.90;99.90;;;;;;5076182;28;20040;-65
2023/06/29 10:28:02;;;;;;;4.93;4.03;;;21.90;99.90;;;;;;5082817;28;20682;-65
2023/06/29 10:30:29;;;;;;;6.05;4.88;;;21.90;99.90;;;;;;5082835;28;20484;-66
2023/06/29 10:32:57;;;;;;;8.18;5.63;;;21.90;99.90;;;;;;5083864;28;20116;-64
2023/06/29 10:35:24;;;;;;;6.20;4.95;;;22.10;99.90;;;;;;5080202;28;20048;-67
2023/06/29 10:37:57;;;;;;;4.78;4.32;;;22.20;99.90;;;;;;5083311;28;20119;-65
2023/06/29 10:40:28;;;;;;;8.35;4.40;;;22.40;99.90;;;;;;5074845;28;20056;-64
2023/06/29 10:42:56;;;;;;;4.53;4.05;;;22.30;99.90;;;;;;5083438;28;20383;-64
2023/06/29 10:45:23;;;;;;;5.00;4.45;;;22.30;99.90;;;;;;5085818;28;20351;-64
2023/06/29 10:47:56;;;;;;;5.32;4.38;;;22.50;99.90;;;;;;5083819;28;20040;-66
2023/06/29 10:50:47;;;;;;;5.65;4.55;;;22.50;99.90;;;;;;5078757;28;20056;-66
2023/06/29 10:53:16;;;;;;;4.63;4.22;;;22.40;99.90;;;;;;5081949;28;20126;-65
2023/06/29 10:55:44;;;;;;;4.78;4.38;;;22.60;99.90;;;;;;5078809;28;20471;-65
2023/06/29 10:58:25;;;;;;;5.10;4.53;;;22.70;99.90;;;;;;5081772;28;20140;-66
2023/06/29 11:00:53;;;;;;;4.18;3.83;;;22.20;99.90;;;;;;5082118;28;20046;-65
2023/06/29 11:03:21;;;;;;;5.10;4.22;;;22.00;99.90;;;;;;5076795;28;20086;-67
2023/06/29 11:05:53;;;;;;;5.68;5.18;;;22.20;99.90;;;;;;5073757;28;20044;-65
2023/06/29 11:08:24;;;;;;;4.88;4.28;;;22.10;99.90;;;;;;5075343;28;20052;-66
2023/06/29 11:10:52;;;;;;;4.78;4.28;;;22.30;99.90;;;;;;5080073;28;20449;-65
2023/06/29 11:13:20;;;;;;;5.10;3.78;;;22.60;99.90;;;;;;5076916;28;20051;-65
2023/06/29 11:15:56;;;;;;;5.22;4.43;;;22.70;99.90;;;;;;5079345;28;20036;-64
2023/06/29 11:18:23;;;;;;;4.60;4.13;;;22.30;99.90;;;;;;5081620;28;20044;-64
2023/06/29 11:20:50;;;;;;;6.30;4.07;;;22.40;99.90;;;;;;5078772;28;20349;-65
2023/06/29 11:23:17;;;;;;;4.82;3.72;;;22.40;99.90;;;;;;5080424;28;20699;-63
2023/06/29 11:25:44;;;;;;;4.55;3.88;;;22.60;99.90;;;;;;5076353;28;20059;-65
2023/06/29 11:28:14;;;;;;;5.75;5.10;;;22.60;99.90;;;;;;5073041;28;20047;-64
2023/06/29 11:30:41;;;;;;;6.25;5.75;;;22.60;99.90;;;;;;5078228;28;20151;-65
2023/06/29 11:33:12;;;;;;;6.43;5.88;;;22.50;99.90;;;;;;5084232;28;20036;-64
2023/06/29 11:36:00;;;;;;;7.88;7.00;;;22.70;99.90;;;;;;5083238;28;20735;-67
2023/06/29 11:38:27;;;;;;;6.22;5.63;;;22.60;99.90;;;;;;5081164;28;20567;-66
2023/06/29 11:41:05;;;;;;;4.78;3.70;;;22.70;99.90;;;;;;5084174;28;20054;-67
2023/06/29 11:43:32;;;;;;;5.22;4.57;;;22.80;99.90;;;;;;5079114;28;20864;-64
2023/06/29 11:46:02;;;;;;;4.32;3.92;;;22.70;99.90;;;;;;5086243;28;20044;-65
2023/06/29 11:48:29;;;;;;;5.50;4.82;;;22.90;99.90;;;;;;5081974;28;20422;-63
2023/06/29 11:51:00;;;;;;;5.43;4.72;;;22.70;99.90;;;;;;5062296;28;20047;-65
2023/06/29 11:53:28;;;;;;;6.93;6.28;;;22.60;99.90;;;;;;5082573;28;20074;-64
2023/06/29 11:55:56;;;;;;;6.07;5.50;;;22.70;99.90;;;;;;5083497;28;20048;-65
2023/06/29 11:58:22;;;;;;;5.85;4.07;;;22.60;99.90;;;;;;5081857;28;20044;-64
2023/06/29 12:00:56;;;;;;;4.72;4.20;;;22.60;99.90;;;;;;5080286;28;20122;-65
2023/06/29 12:03:24;;;;;;;7.32;5.15;;;22.60;99.90;;;;;;5079366;28;20474;-65
2023/06/29 12:05:51;;;;;;;9.63;5.03;;;22.80;99.90;;;;;;5084492;28;20143;-65
2023/06/29 12:08:20;;;;;;;6.53;5.93;;;22.80;99.90;;;;;;5089812;28;20051;-66
2023/06/29 12:10:47;;;;;;;5.28;4.88;;;22.80;99.90;;;;;;5086784;28;20555;-65
2023/06/29 12:13:14;;;;;;;5.38;4.93;;;22.80;99.90;;;;;;5083939;28;20135;-65
2023/06/29 12:15:44;;;;;;;5.10;4.70;;;23.20;99.90;;;;;;5064887;28;20429;-64
2023/06/29 12:18:15;;;;;;;5.68;5.05;;;23.40;99.90;;;;;;5086435;28;20051;-64
2023/06/29 12:20:46;;;;;;;4.93;4.57;;;23.60;99.90;;;;;;5083794;28;20051;-66
2023/06/29 12:23:14;;;;;;;4.35;3.95;;;23.50;99.90;;;;;;5085983;28;20047;-65
2023/06/29 12:25:52;;;;;;;5.13;3.47;;;23.30;99.90;;;;;;5081817;28;20548;-64
2023/06/29 12:28:19;;;;;;;5.15;4.20;;;23.40;99.90;;;;;;5089323;28;20048;-64
2023/06/29 12:30:46;;;;;;;5.80;5.30;;;23.60;99.90;;;;;;5087102;28;20048;-66
2023/06/29 12:33:14;;;;;;;5.90;4.60;;;23.70;99.90;;;;;;5081543;28;20074;-65
2023/06/29 12:35:42;;;;;;;6.18;5.57;;;23.80;99.90;;;;;;5084061;28;20048;-64
2023/06/29 12:38:11;;;;;;;4.95;4.43;;;23.90;99.90;;;;;;5082481;28;20039;-64
2023/06/29 12:40:38;;;;;;;6.22;4.82;;;23.90;99.90;;;;;;5083927;28;20048;-64
2023/06/29 12:43:05;;;;;;;3.35;3.00;;;23.70;99.90;;;;;;5089064;28;20495;-65
2023/06/29 12:45:34;;;;;;;3.38;2.72;;;23.90;99.90;;;;;;5087716;28;20429;-66
2023/06/29 12:48:03;;;;;;;2.88;2.67;;;24.00;99.90;;;;;;5084591;28;20053;-65
2023/06/29 12:50:30;;;;;;;3.90;3.23;;;24.00;99.90;;;;;;5083788;28;20039;-65
2023/06/29 12:52:57;;;;;;;2.88;2.60;;;24.10;99.90;;;;;;5084368;28;20048;-64